createdAt,value
2022-09-10T00:01:34.864Z,13.10
2022-09-10T00:04:10.649Z,12.28
2022-09-10T00:06:39.579Z,13.11
2022-09-10T00:09:11.584Z,13.08
2022-09-10T00:11:42.144Z,12.12
2022-09-10T00:14:18.908Z,11.00
2022-09-10T00:16:47.587Z,13.02
2022-09-10T00:19:18.527Z,11.13
2022-09-10T00:21:50.541Z,13.02
2022-09-10T00:24:19.513Z,13.00
2022-09-10T00:26:48.064Z,11.65
2022-09-10T00:29:18.500Z,12.96
2022-09-10T00:31:47.589Z,12.93
2022-09-10T00:34:17.507Z,12.76
2022-09-10T00:36:46.967Z,12.26
2022-09-10T00:39:18.534Z,10.96
2022-09-10T00:41:49.545Z,11.00
2022-09-10T00:44:58.771Z,12.62
2022-09-10T00:47:36.372Z,12.89
2022-09-10T00:50:18.874Z,12.38
2022-09-10T00:52:48.503Z,11.67
2022-09-10T00:55:18.714Z,12.83
2022-09-10T00:57:52.612Z,12.82
2022-09-10T01:00:24.153Z,12.81
2022-09-10T01:02:54.100Z,12.82
2022-09-10T01:05:29.098Z,12.16
2022-09-10T01:07:58.837Z,12.06
2022-09-10T01:10:35.731Z,11.97
2022-09-10T01:13:33.348Z,12.31
2022-09-10T01:16:18.872Z,12.76
2022-09-10T01:19:01.907Z,11.78
2022-09-10T01:21:38.300Z,11.78
2022-09-10T01:24:48.230Z,12.17
2022-09-10T01:27:45.557Z,11.59
2022-09-10T01:30:19.313Z,10.80
2022-09-10T01:33:08.835Z,10.67
2022-09-10T01:35:49.467Z,10.96
2022-09-10T01:38:31.759Z,12.40
2022-09-10T01:41:01.416Z,12.57
2022-09-10T01:43:38.559Z,12.34
2022-09-10T01:46:31.070Z,12.21
2022-09-10T01:49:25.989Z,12.56
2022-09-10T01:52:27.571Z,12.26
2022-09-10T01:55:11.514Z,12.52
2022-09-10T01:58:03.432Z,12.51
2022-09-10T02:00:51.765Z,12.52
2022-09-10T02:03:25.026Z,11.37
2022-09-10T02:06:02.353Z,11.33
2022-09-10T02:08:39.885Z,11.67
2022-09-10T02:11:22.487Z,12.31
2022-09-10T02:13:55.276Z,12.54
2022-09-10T02:16:38.550Z,12.16
2022-09-10T02:19:08.307Z,11.66
2022-09-10T02:21:46.661Z,11.73
2022-09-10T02:24:15.865Z,12.49
2022-09-10T02:26:49.082Z,11.33
2022-09-10T02:29:19.348Z,12.26
2022-09-10T02:31:50.427Z,11.50
2022-09-10T02:34:24.638Z,11.16
2022-09-10T02:36:57.636Z,12.37
2022-09-10T02:39:30.050Z,11.39
2022-09-10T02:41:59.775Z,10.44
2022-09-10T02:44:30.299Z,11.09
2022-09-10T02:47:06.992Z,10.94
2022-09-10T02:49:38.013Z,12.35
2022-09-10T02:52:13.403Z,10.78
2022-09-10T02:54:44.741Z,12.31
2022-09-10T02:57:15.939Z,12.28
2022-09-10T02:59:46.763Z,12.23
2022-09-10T03:02:21.213Z,11.52
2022-09-10T03:04:50.093Z,12.17
2022-09-10T03:07:23.080Z,12.13
2022-09-10T03:09:51.498Z,10.84
2022-09-10T03:12:20.969Z,12.05
2022-09-10T03:14:59.060Z,11.80
2022-09-10T03:17:36.257Z,11.47
2022-09-10T03:20:18.681Z,10.71
2022-09-10T03:22:48.133Z,12.01
2022-09-10T03:25:20.055Z,11.98
2022-09-10T03:27:51.785Z,11.87
2022-09-10T03:30:24.510Z,11.98
2022-09-10T03:33:04.876Z,10.33
2022-09-10T03:35:33.615Z,11.94
2022-09-10T03:38:06.977Z,11.92
2022-09-10T03:40:37.338Z,9.98
2022-09-10T03:43:08.134Z,11.93
2022-09-10T03:45:36.918Z,11.95
2022-09-10T03:48:34.506Z,11.76
2022-09-10T03:51:03.351Z,11.93
2022-09-10T03:53:34.787Z,11.91
2022-09-10T03:56:06.624Z,11.92
2022-09-10T03:58:39.502Z,11.95
2022-09-10T04:01:12.782Z,11.73
2022-09-10T04:04:00.583Z,10.75
2022-09-10T04:06:35.487Z,12.05
2022-09-10T04:09:06.237Z,12.11
2022-09-10T04:11:43.442Z,10.22
2022-09-10T04:14:14.224Z,12.26
2022-09-10T04:16:46.006Z,11.55
2022-09-10T04:19:22.130Z,10.88
2022-09-10T04:21:52.752Z,12.34
2022-09-10T04:24:21.746Z,12.36
2022-09-10T04:26:53.302Z,10.61
2022-09-10T04:29:25.433Z,12.46
2022-09-10T04:32:02.078Z,12.00
2022-09-10T04:34:34.786Z,11.65
2022-09-10T04:37:06.712Z,12.66
2022-09-10T04:39:36.158Z,12.73
2022-09-10T04:42:06.851Z,11.87
2022-09-10T04:44:38.565Z,12.84
2022-09-10T04:47:11.949Z,12.87
2022-09-10T04:49:46.155Z,10.98
2022-09-10T04:52:18.087Z,11.78
2022-09-10T04:54:46.948Z,12.85
2022-09-10T04:57:16.071Z,12.83
2022-09-10T04:59:44.790Z,12.80
2022-09-10T05:02:15.706Z,11.51
2022-09-10T05:05:04.442Z,10.79
2022-09-10T05:07:35.754Z,10.88
2022-09-10T05:10:07.156Z,12.77
2022-09-10T05:12:45.640Z,12.45
2022-09-10T05:15:18.829Z,12.95
2022-09-10T05:17:53.961Z,12.96
2022-09-10T05:20:23.998Z,12.97
2022-09-10T05:22:56.991Z,12.13
2022-09-10T05:25:28.392Z,11.25
2022-09-10T05:27:57.251Z,12.93
2022-09-10T05:30:25.853Z,12.94
2022-09-10T05:32:55.036Z,12.42
2022-09-10T05:35:27.428Z,12.24
2022-09-10T05:37:59.340Z,12.87
2022-09-10T05:40:29.208Z,12.95
2022-09-10T05:43:10.433Z,13.00
2022-09-10T05:45:39.151Z,13.03
2022-09-10T05:48:16.605Z,11.55
2022-09-10T05:50:48.898Z,11.12
2022-09-10T05:53:20.381Z,13.20
2022-09-10T05:55:50.960Z,13.25
2022-09-10T05:58:30.320Z,13.29
2022-09-10T06:01:00.398Z,13.36
2022-09-10T06:03:32.099Z,13.26
2022-09-10T06:06:11.669Z,11.74
2022-09-10T06:09:03.006Z,12.07
2022-09-10T06:12:03.057Z,13.63
2022-09-10T06:14:33.771Z,13.65
2022-09-10T06:17:04.424Z,13.33
2022-09-10T06:19:34.228Z,13.26
2022-09-10T06:22:04.094Z,12.31
2022-09-10T06:24:38.835Z,13.97
2022-09-10T06:27:08.662Z,12.11
2022-09-10T06:29:40.796Z,13.68
2022-09-10T06:32:18.871Z,14.17
2022-09-10T06:35:14.548Z,12.29
2022-09-10T06:38:07.166Z,12.61
2022-09-10T06:41:27.732Z,14.17
2022-09-10T06:44:05.161Z,14.01
2022-09-10T06:47:19.591Z,13.95
2022-09-10T06:49:36.186Z,13.94
2022-09-10T06:52:05.432Z,14.73
2022-09-10T06:54:42.587Z,13.88
2022-09-10T06:57:35.674Z,13.97
2022-09-10T07:00:24.154Z,14.54
2022-09-10T07:02:55.912Z,14.98
2022-09-10T07:05:31.280Z,15.04
2022-09-10T07:08:04.117Z,14.28
2022-09-10T07:10:41.876Z,13.39
2022-09-10T07:13:17.555Z,13.35
2022-09-10T07:15:50.522Z,14.38
2022-09-10T07:18:25.708Z,14.67
2022-09-10T07:21:07.419Z,15.48
2022-09-10T07:23:47.972Z,14.58
2022-09-10T07:26:45.922Z,15.06
2022-09-10T07:29:18.531Z,15.67
2022-09-10T07:32:46.077Z,14.86
2022-09-10T07:35:02.181Z,15.77
2022-09-10T07:37:34.423Z,15.10
2022-09-10T07:40:07.093Z,15.89
2022-09-10T07:43:07.171Z,15.30
2022-09-10T07:46:56.931Z,16.02
2022-09-10T07:49:23.949Z,15.25
2022-09-10T07:52:09.349Z,15.36
2022-09-10T07:55:02.371Z,15.81
2022-09-10T07:58:13.013Z,15.19
2022-09-10T08:00:45.768Z,16.45
2022-09-10T08:03:18.538Z,16.55
2022-09-10T08:06:04.640Z,14.94
2022-09-10T08:08:48.962Z,15.06
2022-09-10T08:11:33.012Z,16.58
2022-09-10T08:14:06.632Z,15.52
2022-09-10T08:16:42.514Z,15.80
2022-09-10T08:19:18.255Z,15.64
2022-09-10T08:21:47.849Z,16.99
2022-09-10T08:24:28.744Z,16.85
2022-09-10T08:26:59.277Z,17.04
2022-09-10T08:29:31.997Z,15.44
2022-09-10T08:32:09.183Z,16.70
2022-09-10T08:34:38.721Z,17.25
2022-09-10T08:37:16.901Z,17.18
2022-09-10T08:39:54.807Z,17.31
2022-09-10T08:42:50.379Z,17.37
2022-09-10T08:45:35.622Z,15.90
2022-09-10T08:48:17.259Z,16.69
2022-09-10T08:50:53.115Z,17.10
2022-09-10T08:53:42.002Z,16.73
2022-09-10T08:56:17.969Z,16.67
2022-09-10T08:59:11.673Z,16.82
2022-09-10T09:01:53.692Z,16.63
2022-09-10T09:04:44.236Z,17.77
2022-09-10T09:07:20.481Z,17.98
2022-09-10T09:09:55.838Z,16.58
2022-09-10T09:12:40.644Z,16.88
2022-09-10T09:15:28.899Z,17.32
2022-09-10T09:18:20.126Z,17.49
2022-09-10T09:20:55.460Z,18.23
2022-09-10T09:23:44.631Z,18.51
2022-09-10T09:26:21.740Z,18.61
2022-09-10T09:29:02.613Z,17.95
2022-09-10T09:31:38.087Z,18.20
2022-09-10T09:34:20.349Z,19.38
2022-09-10T09:36:55.049Z,19.98
2022-09-10T09:39:36.872Z,19.35
2022-09-10T09:42:14.363Z,20.16
2022-09-10T09:44:57.134Z,19.43
2022-09-10T09:47:27.224Z,20.00
2022-09-10T09:49:57.326Z,19.71
2022-09-10T09:52:29.651Z,19.59
2022-09-10T09:55:15.415Z,19.83
2022-09-10T09:57:44.880Z,18.08
2022-09-10T10:00:36.674Z,19.69
2022-09-10T10:03:19.317Z,19.79
2022-09-10T10:05:49.907Z,19.74
2022-09-10T10:08:31.687Z,19.37
2022-09-10T10:11:00.409Z,18.86
2022-09-10T10:13:38.937Z,20.59
2022-09-10T10:16:22.013Z,21.00
2022-09-10T10:18:51.835Z,21.44
2022-09-10T10:21:30.294Z,21.45
2022-09-10T10:23:58.776Z,21.14
2022-09-10T10:26:33.979Z,21.07
2022-09-10T10:29:08.540Z,20.74
2022-09-10T10:31:41.909Z,21.40
2022-09-10T10:34:56.729Z,21.37
2022-09-10T10:37:44.085Z,20.79
2022-09-10T10:40:29.520Z,22.07
2022-09-10T10:43:14.222Z,21.93
2022-09-10T10:45:59.415Z,23.46
2022-09-10T10:48:49.977Z,23.91
2022-09-10T10:51:34.936Z,25.13
2022-09-10T10:54:44.610Z,23.94
2022-09-10T10:57:32.635Z,25.46
2022-09-10T11:00:07.650Z,24.01
2022-09-10T11:02:59.096Z,23.79
2022-09-10T11:05:33.477Z,23.90
2022-09-10T11:08:15.043Z,22.93
2022-09-10T11:10:53.992Z,23.49
2022-09-10T11:13:28.564Z,22.58
2022-09-10T11:16:05.562Z,22.46
2022-09-10T11:18:44.002Z,21.41
2022-09-10T11:21:39.354Z,22.23
2022-09-10T11:24:18.959Z,20.39
2022-09-10T11:26:58.627Z,19.89
2022-09-10T11:29:41.082Z,19.04
2022-09-10T11:32:27.085Z,18.79
2022-09-10T11:35:07.333Z,18.75
2022-09-10T11:38:06.223Z,19.93
2022-09-10T11:40:49.219Z,19.02
2022-09-10T11:43:34.509Z,19.23
2022-09-10T11:46:16.118Z,19.23
2022-09-10T11:48:51.787Z,20.78
2022-09-10T11:51:29.204Z,20.27
2022-09-10T11:54:07.077Z,20.91
2022-09-10T11:56:59.676Z,20.58
2022-09-10T12:00:06.732Z,20.01
2022-09-10T12:03:20.775Z,20.61
2022-09-10T12:06:02.996Z,21.17
2022-09-10T12:09:02.401Z,20.05
2022-09-10T12:11:42.373Z,20.94
2022-09-10T12:14:19.669Z,21.49
2022-09-10T12:16:55.929Z,21.05
2022-09-10T12:19:32.380Z,21.11
2022-09-10T12:22:06.122Z,21.50
2022-09-10T12:24:38.875Z,21.78
2022-09-10T12:27:18.615Z,20.51
2022-09-10T12:29:49.243Z,21.77
2022-09-10T12:32:40.207Z,20.98
2022-09-10T12:35:46.721Z,21.85
2022-09-10T12:39:17.417Z,20.94
2022-09-10T12:42:04.049Z,21.01
2022-09-10T12:44:48.565Z,20.49
2022-09-10T12:47:53.472Z,20.46
2022-09-10T12:50:40.383Z,20.53
2022-09-10T12:53:55.150Z,20.03
2022-09-10T12:57:08.309Z,20.48
2022-09-10T13:00:12.095Z,19.62
2022-09-10T13:02:53.989Z,20.05
2022-09-10T13:05:40.968Z,20.75
2022-09-10T13:08:21.504Z,20.54
2022-09-10T13:11:13.610Z,20.42
2022-09-10T13:13:46.517Z,20.37
2022-09-10T13:16:20.361Z,20.29
2022-09-10T13:18:55.051Z,20.30
2022-09-10T13:21:55.446Z,20.23
2022-09-10T13:25:02.869Z,19.09
2022-09-10T13:27:40.916Z,20.32
2022-09-10T13:30:19.224Z,19.49
2022-09-10T13:32:55.560Z,20.09
2022-09-10T13:36:06.810Z,20.93
2022-09-10T13:39:28.848Z,20.85
2022-09-10T13:42:35.625Z,19.00
2022-09-10T13:45:24.829Z,20.39
2022-09-10T13:48:05.005Z,20.19
2022-09-10T13:50:47.707Z,20.85
2022-09-10T13:53:32.343Z,19.65
2022-09-10T13:56:13.996Z,19.94
2022-09-10T13:58:51.255Z,20.69
2022-09-10T14:01:20.231Z,20.99
2022-09-10T14:03:48.774Z,21.03
2022-09-10T14:06:24.004Z,19.51
2022-09-10T14:08:57.411Z,20.80
2022-09-10T14:11:29.387Z,19.29
2022-09-10T14:14:06.029Z,20.61
2022-09-10T14:16:41.374Z,19.19
2022-09-10T14:19:20.040Z,20.18
2022-09-10T14:21:53.521Z,19.76
2022-09-10T14:24:33.577Z,19.79
2022-09-10T14:27:17.672Z,20.61
2022-09-10T14:29:47.206Z,18.73
2022-09-10T14:32:28.504Z,19.54
2022-09-10T14:34:57.417Z,20.48
2022-09-10T14:37:39.667Z,20.45
2022-09-10T14:40:20.896Z,19.72
2022-09-10T14:42:51.566Z,20.27
2022-09-10T14:45:46.183Z,20.41
2022-09-10T14:48:37.102Z,20.56
2022-09-10T14:51:18.619Z,20.62
2022-09-10T14:53:53.548Z,19.70
2022-09-10T14:56:30.317Z,20.06
2022-09-10T14:59:01.741Z,20.13
2022-09-10T15:01:31.277Z,20.06
2022-09-10T15:04:00.518Z,18.52
2022-09-10T15:06:29.065Z,19.57
2022-09-10T15:09:00.670Z,18.84
2022-09-10T15:11:30.041Z,18.58
2022-09-10T15:13:59.345Z,18.87
2022-09-10T15:16:29.677Z,18.64
2022-09-10T15:18:59.034Z,17.10
2022-09-10T15:21:27.562Z,17.75
2022-09-10T15:23:56.421Z,19.11
2022-09-10T15:26:26.669Z,19.06
2022-09-10T15:28:55.124Z,17.21
2022-09-10T15:31:30.722Z,18.97
2022-09-10T15:34:01.006Z,18.44
2022-09-10T15:36:29.347Z,17.07
2022-09-10T15:38:59.718Z,18.68
2022-09-10T15:41:29.835Z,18.64
2022-09-10T15:43:58.881Z,18.94
2022-09-10T15:46:29.550Z,17.70
2022-09-10T15:48:59.813Z,17.85
2022-09-10T15:51:28.754Z,18.89
2022-09-10T15:54:04.311Z,17.30
2022-09-10T15:56:37.892Z,18.70
2022-09-10T15:59:08.920Z,18.93
2022-09-10T16:01:39.009Z,18.93
2022-09-10T16:04:27.698Z,18.83
2022-09-10T16:06:58.158Z,18.48
2022-09-10T16:09:26.893Z,18.88
2022-09-10T16:12:01.745Z,17.87
2022-09-10T16:14:32.180Z,18.60
2022-09-10T16:17:01.645Z,17.63
2022-09-10T16:19:30.510Z,18.45
2022-09-10T16:22:01.224Z,17.12
2022-09-10T16:24:30.177Z,17.79
2022-09-10T16:27:06.021Z,16.16
2022-09-10T16:29:47.896Z,17.99
2022-09-10T16:32:17.339Z,17.90
2022-09-10T16:34:49.321Z,17.82
2022-09-10T16:37:22.529Z,17.76
2022-09-10T16:39:52.028Z,16.81
2022-09-10T16:42:23.609Z,15.68
2022-09-10T16:44:53.058Z,17.70
2022-09-10T16:47:55.203Z,17.67
2022-09-10T16:50:27.987Z,17.63
2022-09-10T16:52:56.944Z,17.60
2022-09-10T16:55:26.206Z,15.71
2022-09-10T16:57:59.744Z,15.23
2022-09-10T17:00:31.572Z,17.38
2022-09-10T17:03:01.190Z,17.31
2022-09-10T17:05:33.328Z,15.38
2022-09-10T17:08:50.400Z,16.84
2022-09-10T17:11:22.933Z,15.25
2022-09-10T17:13:55.448Z,17.03
2022-09-10T17:16:28.242Z,14.78
2022-09-10T17:18:59.778Z,14.95
2022-09-10T17:21:57.110Z,16.10
2022-09-10T17:24:37.526Z,15.33
2022-09-10T17:27:26.503Z,15.57
2022-09-10T17:30:30.844Z,14.92
2022-09-10T17:33:08.091Z,16.80
2022-09-10T17:35:43.113Z,16.78
2022-09-10T17:38:18.928Z,16.78
2022-09-10T17:40:58.859Z,15.95
2022-09-10T17:43:35.648Z,16.79
2022-09-10T17:46:24.939Z,14.53
2022-09-10T17:49:27.971Z,14.11
2022-09-10T17:52:14.027Z,16.60
2022-09-10T17:54:47.763Z,16.48
2022-09-10T17:57:47.191Z,16.36
2022-09-10T18:00:46.923Z,14.25
2022-09-10T18:03:37.003Z,14.67
2022-09-10T18:06:48.956Z,16.08
2022-09-10T18:10:02.904Z,16.01
2022-09-10T18:12:36.158Z,16.01
2022-09-10T18:15:28.554Z,14.52
2022-09-10T18:18:04.601Z,13.78
2022-09-10T18:21:06.898Z,15.97
2022-09-10T18:23:45.852Z,15.43
2022-09-10T18:26:31.023Z,13.73
2022-09-10T18:29:15.095Z,14.99
2022-09-10T18:31:50.406Z,14.60
2022-09-10T18:34:27.608Z,15.66
2022-09-10T18:37:04.221Z,13.36
2022-09-10T18:39:37.295Z,15.13
2022-09-10T18:42:07.018Z,15.58
2022-09-10T18:45:08.465Z,13.32
2022-09-10T18:47:45.541Z,15.58
2022-09-10T18:50:21.346Z,15.56
2022-09-10T18:52:52.574Z,14.59
2022-09-10T18:55:29.121Z,15.18
2022-09-10T18:57:58.032Z,15.31
2022-09-10T19:00:32.350Z,14.20
2022-09-10T19:03:04.337Z,15.14
2022-09-10T19:09:54.125Z,13.14
2022-09-10T19:12:23.614Z,14.91
2022-09-10T19:14:53.009Z,14.88
2022-09-10T19:17:22.938Z,14.84
2022-09-10T19:19:51.676Z,14.75
2022-09-10T19:22:21.331Z,14.75
2022-09-10T19:24:55.356Z,14.66
2022-09-10T19:27:26.559Z,14.03
2022-09-10T19:29:56.080Z,14.31
2022-09-10T19:32:25.327Z,14.56
2022-09-10T19:34:55.504Z,14.52
2022-09-10T19:37:24.491Z,14.50
2022-09-10T19:39:53.394Z,14.52
2022-09-10T19:42:22.386Z,14.53
2022-09-10T19:44:52.357Z,13.75
2022-09-10T19:47:22.095Z,14.50
2022-09-10T19:49:51.556Z,14.48
2022-09-10T19:52:21.760Z,14.47
2022-09-10T19:54:50.687Z,14.45
2022-09-10T19:57:19.513Z,13.67
2022-09-10T19:59:48.319Z,13.33
2022-09-10T20:02:18.434Z,14.19
2022-09-10T20:04:47.172Z,14.47
2022-09-10T20:07:16.299Z,14.48
2022-09-10T20:09:45.161Z,14.48
2022-09-10T20:12:17.225Z,14.51
2022-09-10T20:14:48.241Z,14.54
2022-09-10T20:17:18.386Z,13.38
2022-09-10T20:19:47.032Z,14.50
2022-09-10T20:22:15.695Z,14.48
2022-09-10T20:24:44.592Z,14.49
2022-09-10T20:27:13.305Z,14.44
2022-09-10T20:29:43.931Z,14.47
2022-09-10T20:32:13.937Z,14.45
2022-09-10T20:34:44.185Z,14.40
2022-09-10T20:37:15.185Z,14.44
2022-09-10T20:39:44.472Z,14.31
2022-09-10T20:42:13.434Z,14.45
2022-09-10T20:44:52.392Z,14.46
2022-09-10T20:47:24.189Z,14.43
2022-09-10T20:49:54.451Z,14.39
2022-09-10T20:52:23.469Z,14.15
2022-09-10T20:54:52.337Z,13.15
2022-09-10T20:57:22.488Z,13.92
2022-09-10T20:59:51.088Z,13.97
2022-09-10T21:02:19.798Z,14.08
2022-09-10T21:04:48.481Z,14.25
2022-09-10T21:07:18.436Z,13.10
2022-09-10T21:09:49.100Z,14.13
2022-09-10T21:12:17.660Z,14.23
2022-09-10T21:14:46.184Z,14.06
2022-09-10T21:17:15.297Z,14.18
2022-09-10T21:19:47.847Z,14.13
2022-09-10T21:22:18.780Z,14.08
2022-09-10T21:24:47.338Z,14.06
2022-09-10T21:27:18.977Z,13.99
2022-09-10T21:29:47.797Z,12.15
2022-09-10T21:32:16.581Z,12.85
2022-09-10T21:34:46.880Z,13.60
2022-09-10T21:37:15.474Z,13.54
2022-09-10T21:39:45.694Z,13.82
2022-09-10T21:42:14.646Z,13.80
2022-09-10T21:44:43.359Z,13.18
2022-09-10T21:47:12.371Z,12.54
2022-09-10T21:49:41.156Z,13.48
2022-09-10T21:52:10.319Z,13.69
2022-09-10T21:54:38.975Z,13.48
2022-09-10T21:57:11.457Z,13.50
2022-09-10T21:59:41.689Z,13.69
2022-09-10T22:02:11.010Z,13.65
2022-09-10T22:04:39.815Z,13.04
2022-09-10T22:07:12.802Z,13.56
2022-09-10T22:09:44.032Z,12.68
2022-09-10T22:12:14.161Z,13.52
2022-09-10T22:14:43.052Z,13.50
2022-09-10T22:17:13.533Z,13.50
2022-09-10T22:19:42.300Z,13.51
2022-09-10T22:22:12.547Z,13.47
2022-09-10T22:24:41.127Z,13.43
2022-09-10T22:27:09.834Z,13.23
2022-09-10T22:29:39.924Z,13.49
2022-09-10T22:32:09.282Z,12.59
2022-09-10T22:34:43.957Z,12.21
2022-09-10T22:37:16.659Z,12.72
2022-09-10T22:39:48.141Z,13.46
2022-09-10T22:42:22.215Z,13.45
2022-09-10T22:44:52.429Z,12.55
2022-09-10T22:47:21.504Z,12.06
2022-09-10T22:49:53.745Z,13.40
2022-09-10T22:52:22.626Z,13.20
2022-09-10T22:54:51.317Z,13.20
2022-09-10T22:57:19.981Z,13.03
2022-09-10T22:59:48.746Z,12.97
2022-09-10T23:02:18.828Z,12.72
2022-09-10T23:04:48.486Z,12.42
2022-09-10T23:07:18.320Z,13.19
2022-09-10T23:09:48.561Z,13.15
2022-09-10T23:12:22.192Z,11.97
2022-09-10T23:14:50.914Z,12.11
2022-09-10T23:17:22.687Z,13.04
2022-09-10T23:19:51.414Z,12.49
2022-09-10T23:22:19.953Z,12.97
2022-09-10T23:24:48.760Z,12.94
2022-09-10T23:27:17.366Z,12.72
2022-09-10T23:29:46.055Z,12.73
2022-09-10T23:32:14.593Z,11.92
2022-09-10T23:34:45.263Z,12.79
2022-09-10T23:37:14.150Z,12.92
2022-09-10T23:39:42.844Z,12.84
2022-09-10T23:42:11.638Z,12.89
2022-09-10T23:44:40.182Z,12.87
2022-09-10T23:47:08.772Z,11.58
2022-09-10T23:49:37.469Z,12.84
2022-09-10T23:52:07.699Z,12.84
2022-09-10T23:54:37.588Z,12.64
2022-09-10T23:57:06.833Z,12.15
2022-09-10T23:59:35.472Z,11.56
